sensor_id;sensor_type;location;lat;lon;timestamp;P1;durP1;ratioP1;P2;durP2;ratioP2
8007;SDS011;4049;49.468;11.200;2024-03-22T00:01:09;15.80;;;9.60;;
8007;SDS011;4049;49.468;11.200;2024-03-22T00:03:37;15.80;;;9.37;;
8007;SDS011;4049;49.468;11.200;2024-03-22T00:06:03;14.43;;;9.50;;
8007;SDS011;4049;49.468;11.200;2024-03-22T00:08:30;14.17;;;8.97;;
8007;SDS011;4049;49.468;11.200;2024-03-22T00:10:56;17.80;;;9.10;;
8007;SDS011;4049;49.468;11.200;2024-03-22T00:13:23;15.37;;;9.13;;
8007;SDS011;4049;49.468;11.200;2024-03-22T00:15:49;16.17;;;9.90;;
8007;SDS011;4049;49.468;11.200;2024-03-22T00:18:16;15.80;;;9.30;;
8007;SDS011;4049;49.468;11.200;2024-03-22T00:20:43;15.17;;;8.53;;
8007;SDS011;4049;49.468;11.200;2024-03-22T00:23:10;16.77;;;9.10;;
8007;SDS011;4049;49.468;11.200;2024-03-22T00:25:35;16.70;;;9.30;;
8007;SDS011;4049;49.468;11.200;2024-03-22T00:28:03;12.60;;;8.03;;
8007;SDS011;4049;49.468;11.200;2024-03-22T00:30:29;14.23;;;8.70;;
8007;SDS011;4049;49.468;11.200;2024-03-22T00:32:56;16.43;;;9.07;;
8007;SDS011;4049;49.468;11.200;2024-03-22T00:35:21;13.67;;;8.63;;
8007;SDS011;4049;49.468;11.200;2024-03-22T00:37:50;14.50;;;7.70;;
8007;SDS011;4049;49.468;11.200;2024-03-22T00:40:16;16.17;;;8.43;;
8007;SDS011;4049;49.468;11.200;2024-03-22T00:42:43;16.77;;;9.20;;
8007;SDS011;4049;49.468;11.200;2024-03-22T00:45:09;16.17;;;8.97;;
8007;SDS011;4049;49.468;11.200;2024-03-22T00:47:35;16.33;;;8.60;;
8007;SDS011;4049;49.468;11.200;2024-03-22T00:50:01;15.57;;;8.30;;
8007;SDS011;4049;49.468;11.200;2024-03-22T00:52:29;12.03;;;8.33;;
8007;SDS011;4049;49.468;11.200;2024-03-22T00:54:57;13.23;;;7.73;;
8007;SDS011;4049;49.468;11.200;2024-03-22T00:57:23;12.27;;;7.20;;
8007;SDS011;4049;49.468;11.200;2024-03-22T00:59:50;12.60;;;7.17;;
8007;SDS011;4049;49.468;11.200;2024-03-22T01:02:17;12.23;;;7.73;;
8007;SDS011;4049;49.468;11.200;2024-03-22T01:04:43;11.70;;;7.73;;
8007;SDS011;4049;49.468;11.200;2024-03-22T01:07:10;12.70;;;7.37;;
8007;SDS011;4049;49.468;11.200;2024-03-22T01:09:35;9.90;;;6.40;;
8007;SDS011;4049;49.468;11.200;2024-03-22T01:12:04;12.50;;;7.30;;
8007;SDS011;4049;49.468;11.200;2024-03-22T01:14:30;13.07;;;7.67;;
8007;SDS011;4049;49.468;11.200;2024-03-22T01:16:57;13.27;;;7.70;;
8007;SDS011;4049;49.468;11.200;2024-03-22T01:19:23;10.67;;;6.87;;
8007;SDS011;4049;49.468;11.200;2024-03-22T01:21:50;15.27;;;8.23;;
8007;SDS011;4049;49.468;11.200;2024-03-22T01:24:16;12.00;;;7.60;;
8007;SDS011;4049;49.468;11.200;2024-03-22T01:26:43;14.90;;;7.37;;
8007;SDS011;4049;49.468;11.200;2024-03-22T01:29:10;14.03;;;7.37;;
8007;SDS011;4049;49.468;11.200;2024-03-22T01:31:37;14.03;;;7.90;;
8007;SDS011;4049;49.468;11.200;2024-03-22T01:34:03;17.13;;;7.97;;
8007;SDS011;4049;49.468;11.200;2024-03-22T01:36:30;14.30;;;7.77;;
8007;SDS011;4049;49.468;11.200;2024-03-22T01:38:56;13.00;;;7.37;;
8007;SDS011;4049;49.468;11.200;2024-03-22T01:41:23;12.60;;;7.57;;
8007;SDS011;4049;49.468;11.200;2024-03-22T01:43:49;14.03;;;7.70;;
8007;SDS011;4049;49.468;11.200;2024-03-22T01:46:17;13.83;;;7.33;;
8007;SDS011;4049;49.468;11.200;2024-03-22T01:48:43;14.10;;;7.93;;
8007;SDS011;4049;49.468;11.200;2024-03-22T01:51:10;12.63;;;7.90;;
8007;SDS011;4049;49.468;11.200;2024-03-22T01:53:36;13.07;;;7.30;;
8007;SDS011;4049;49.468;11.200;2024-03-22T01:56:04;15.33;;;7.83;;
8007;SDS011;4049;49.468;11.200;2024-03-22T01:58:32;11.97;;;6.80;;
8007;SDS011;4049;49.468;11.200;2024-03-22T02:00:59;15.20;;;7.97;;
8007;SDS011;4049;49.468;11.200;2024-03-22T02:03:26;15.33;;;7.23;;
8007;SDS011;4049;49.468;11.200;2024-03-22T02:05:53;11.57;;;7.17;;
8007;SDS011;4049;49.468;11.200;2024-03-22T02:08:19;11.93;;;7.63;;
8007;SDS011;4049;49.468;11.200;2024-03-22T02:10:46;11.27;;;7.53;;
8007;SDS011;4049;49.468;11.200;2024-03-22T02:13:12;11.10;;;7.43;;
8007;SDS011;4049;49.468;11.200;2024-03-22T02:15:39;12.03;;;7.10;;
8007;SDS011;4049;49.468;11.200;2024-03-22T02:18:05;10.63;;;6.93;;
8007;SDS011;4049;49.468;11.200;2024-03-22T02:20:34;9.83;;;6.57;;
8007;SDS011;4049;49.468;11.200;2024-03-22T02:23:00;11.23;;;6.90;;
8007;SDS011;4049;49.468;11.200;2024-03-22T02:25:28;9.63;;;6.07;;
8007;SDS011;4049;49.468;11.200;2024-03-22T02:27:54;9.00;;;5.90;;
8007;SDS011;4049;49.468;11.200;2024-03-22T02:30:21;8.43;;;6.00;;
8007;SDS011;4049;49.468;11.200;2024-03-22T02:32:47;9.37;;;6.20;;
8007;SDS011;4049;49.468;11.200;2024-03-22T02:35:14;9.67;;;6.27;;
8007;SDS011;4049;49.468;11.200;2024-03-22T02:37:40;12.13;;;6.63;;
8007;SDS011;4049;49.468;11.200;2024-03-22T02:40:07;10.90;;;7.13;;
8007;SDS011;4049;49.468;11.200;2024-03-22T02:42:35;13.03;;;6.97;;
8007;SDS011;4049;49.468;11.200;2024-03-22T02:45:02;11.67;;;7.43;;
8007;SDS011;4049;49.468;11.200;2024-03-22T02:47:28;13.10;;;7.40;;
8007;SDS011;4049;49.468;11.200;2024-03-22T02:49:55;13.30;;;6.93;;
8007;SDS011;4049;49.468;11.200;2024-03-22T02:52:21;12.07;;;7.33;;
8007;SDS011;4049;49.468;11.200;2024-03-22T02:54:48;14.93;;;7.70;;
8007;SDS011;4049;49.468;11.200;2024-03-22T02:57:13;13.80;;;8.17;;
8007;SDS011;4049;49.468;11.200;2024-03-22T02:59:42;15.10;;;8.50;;
8007;SDS011;4049;49.468;11.200;2024-03-22T03:02:08;14.23;;;9.03;;
8007;SDS011;4049;49.468;11.200;2024-03-22T03:04:34;14.27;;;8.13;;
8007;SDS011;4049;49.468;11.200;2024-03-22T03:07:00;15.83;;;8.30;;
8007;SDS011;4049;49.468;11.200;2024-03-22T03:09:27;14.13;;;7.93;;
8007;SDS011;4049;49.468;11.200;2024-03-22T03:11:53;13.80;;;8.40;;
8007;SDS011;4049;49.468;11.200;2024-03-22T03:14:20;14.67;;;7.67;;
8007;SDS011;4049;49.468;11.200;2024-03-22T03:16:47;16.47;;;7.60;;
8007;SDS011;4049;49.468;11.200;2024-03-22T03:19:14;13.23;;;8.23;;
8007;SDS011;4049;49.468;11.200;2024-03-22T03:21:40;14.13;;;8.63;;
8007;SDS011;4049;49.468;11.200;2024-03-22T03:24:06;14.80;;;8.70;;
8007;SDS011;4049;49.468;11.200;2024-03-22T03:26:34;11.70;;;7.80;;
8007;SDS011;4049;49.468;11.200;2024-03-22T03:29:01;14.03;;;8.17;;
8007;SDS011;4049;49.468;11.200;2024-03-22T03:31:27;14.03;;;8.03;;
8007;SDS011;4049;49.468;11.200;2024-03-22T03:33:55;12.50;;;7.70;;
8007;SDS011;4049;49.468;11.200;2024-03-22T03:36:21;13.63;;;8.23;;
8007;SDS011;4049;49.468;11.200;2024-03-22T03:38:48;13.20;;;7.60;;
8007;SDS011;4049;49.468;11.200;2024-03-22T03:41:14;13.97;;;8.03;;
8007;SDS011;4049;49.468;11.200;2024-03-22T03:43:41;13.30;;;8.57;;
8007;SDS011;4049;49.468;11.200;2024-03-22T03:46:07;15.00;;;8.00;;
8007;SDS011;4049;49.468;11.200;2024-03-22T03:48:33;12.53;;;7.40;;
8007;SDS011;4049;49.468;11.200;2024-03-22T03:51:00;15.83;;;8.53;;
8007;SDS011;4049;49.468;11.200;2024-03-22T03:53:28;11.73;;;7.33;;
8007;SDS011;4049;49.468;11.200;2024-03-22T03:55:54;15.87;;;7.87;;
8007;SDS011;4049;49.468;11.200;2024-03-22T03:58:21;13.13;;;7.50;;
8007;SDS011;4049;49.468;11.200;2024-03-22T04:00:47;11.00;;;7.57;;
8007;SDS011;4049;49.468;11.200;2024-03-22T04:03:14;10.90;;;7.70;;
8007;SDS011;4049;49.468;11.200;2024-03-22T04:05:40;12.70;;;7.80;;
8007;SDS011;4049;49.468;11.200;2024-03-22T04:08:08;13.87;;;8.50;;
8007;SDS011;4049;49.468;11.200;2024-03-22T04:10:34;14.47;;;8.33;;
8007;SDS011;4049;49.468;11.200;2024-03-22T04:13:01;16.10;;;8.87;;
8007;SDS011;4049;49.468;11.200;2024-03-22T04:15:27;15.53;;;8.63;;
8007;SDS011;4049;49.468;11.200;2024-03-22T04:17:56;14.10;;;8.60;;
8007;SDS011;4049;49.468;11.200;2024-03-22T04:20:22;12.83;;;8.37;;
8007;SDS011;4049;49.468;11.200;2024-03-22T04:22:49;15.40;;;9.43;;
8007;SDS011;4049;49.468;11.200;2024-03-22T04:25:18;15.97;;;9.50;;
8007;SDS011;4049;49.468;11.200;2024-03-22T04:27:45;14.93;;;9.00;;
8007;SDS011;4049;49.468;11.200;2024-03-22T04:30:11;13.53;;;8.50;;
8007;SDS011;4049;49.468;11.200;2024-03-22T04:32:38;15.67;;;8.70;;
8007;SDS011;4049;49.468;11.200;2024-03-22T04:35:04;13.73;;;8.13;;
8007;SDS011;4049;49.468;11.200;2024-03-22T04:37:32;14.63;;;8.67;;
8007;SDS011;4049;49.468;11.200;2024-03-22T04:39:59;15.57;;;9.67;;
8007;SDS011;4049;49.468;11.200;2024-03-22T04:42:27;14.80;;;8.90;;
8007;SDS011;4049;49.468;11.200;2024-03-22T04:44:54;14.73;;;8.57;;
8007;SDS011;4049;49.468;11.200;2024-03-22T04:47:22;15.00;;;8.17;;
8007;SDS011;4049;49.468;11.200;2024-03-22T04:49:48;14.03;;;8.50;;
8007;SDS011;4049;49.468;11.200;2024-03-22T04:52:15;15.83;;;9.03;;
8007;SDS011;4049;49.468;11.200;2024-03-22T04:54:41;13.50;;;8.00;;
8007;SDS011;4049;49.468;11.200;2024-03-22T04:57:08;15.67;;;9.23;;
8007;SDS011;4049;49.468;11.200;2024-03-22T04:59:35;14.97;;;9.23;;
8007;SDS011;4049;49.468;11.200;2024-03-22T05:02:02;16.03;;;9.83;;
8007;SDS011;4049;49.468;11.200;2024-03-22T05:04:29;15.43;;;8.27;;
8007;SDS011;4049;49.468;11.200;2024-03-22T05:06:54;15.90;;;9.73;;
8007;SDS011;4049;49.468;11.200;2024-03-22T05:09:21;15.33;;;9.30;;
8007;SDS011;4049;49.468;11.200;2024-03-22T05:11:47;16.60;;;8.70;;
8007;SDS011;4049;49.468;11.200;2024-03-22T05:14:16;14.20;;;9.03;;
8007;SDS011;4049;49.468;11.200;2024-03-22T05:16:43;13.97;;;8.53;;
8007;SDS011;4049;49.468;11.200;2024-03-22T05:19:10;13.90;;;8.90;;
8007;SDS011;4049;49.468;11.200;2024-03-22T05:21:36;14.27;;;8.50;;
8007;SDS011;4049;49.468;11.200;2024-03-22T05:24:03;18.00;;;8.70;;
8007;SDS011;4049;49.468;11.200;2024-03-22T05:26:29;14.57;;;9.07;;
8007;SDS011;4049;49.468;11.200;2024-03-22T05:29:01;18.13;;;9.47;;
8007;SDS011;4049;49.468;11.200;2024-03-22T05:31:27;17.80;;;9.30;;
8007;SDS011;4049;49.468;11.200;2024-03-22T05:33:55;13.03;;;7.67;;
8007;SDS011;4049;49.468;11.200;2024-03-22T05:36:21;14.63;;;8.40;;
8007;SDS011;4049;49.468;11.200;2024-03-22T05:38:48;14.10;;;8.07;;
8007;SDS011;4049;49.468;11.200;2024-03-22T05:41:14;13.43;;;8.17;;
8007;SDS011;4049;49.468;11.200;2024-03-22T05:43:41;15.50;;;8.57;;
8007;SDS011;4049;49.468;11.200;2024-03-22T05:46:07;15.40;;;8.23;;
8007;SDS011;4049;49.468;11.200;2024-03-22T05:48:33;16.40;;;9.37;;
8007;SDS011;4049;49.468;11.200;2024-03-22T05:51:01;17.93;;;8.93;;
8007;SDS011;4049;49.468;11.200;2024-03-22T05:53:27;14.23;;;8.63;;
8007;SDS011;4049;49.468;11.200;2024-03-22T05:55:53;14.67;;;8.97;;
8007;SDS011;4049;49.468;11.200;2024-03-22T05:58:20;14.90;;;9.13;;
8007;SDS011;4049;49.468;11.200;2024-03-22T06:00:46;15.97;;;9.30;;
8007;SDS011;4049;49.468;11.200;2024-03-22T06:03:13;15.47;;;9.17;;
8007;SDS011;4049;49.468;11.200;2024-03-22T06:05:39;15.90;;;8.90;;
8007;SDS011;4049;49.468;11.200;2024-03-22T06:08:07;17.67;;;10.30;;
8007;SDS011;4049;49.468;11.200;2024-03-22T06:10:34;16.27;;;9.53;;
8007;SDS011;4049;49.468;11.200;2024-03-22T06:13:00;16.70;;;9.47;;
8007;SDS011;4049;49.468;11.200;2024-03-22T06:15:28;18.60;;;10.03;;
8007;SDS011;4049;49.468;11.200;2024-03-22T06:17:54;19.23;;;11.00;;
8007;SDS011;4049;49.468;11.200;2024-03-22T06:20:20;21.40;;;10.50;;
8007;SDS011;4049;49.468;11.200;2024-03-22T06:22:47;29.77;;;13.90;;
8007;SDS011;4049;49.468;11.200;2024-03-22T06:25:15;20.13;;;11.97;;
8007;SDS011;4049;49.468;11.200;2024-03-22T06:27:41;21.27;;;11.97;;
8007;SDS011;4049;49.468;11.200;2024-03-22T06:30:08;19.47;;;11.60;;
8007;SDS011;4049;49.468;11.200;2024-03-22T06:32:34;23.57;;;11.97;;
8007;SDS011;4049;49.468;11.200;2024-03-22T06:35:01;19.77;;;11.30;;
8007;SDS011;4049;49.468;11.200;2024-03-22T06:37:30;22.70;;;12.53;;
8007;SDS011;4049;49.468;11.200;2024-03-22T06:39:57;22.07;;;12.97;;
8007;SDS011;4049;49.468;11.200;2024-03-22T06:42:25;21.80;;;11.70;;
8007;SDS011;4049;49.468;11.200;2024-03-22T06:44:52;20.80;;;12.43;;
8007;SDS011;4049;49.468;11.200;2024-03-22T06:47:17;20.80;;;11.23;;
8007;SDS011;4049;49.468;11.200;2024-03-22T06:49:45;25.17;;;12.97;;
8007;SDS011;4049;49.468;11.200;2024-03-22T06:52:11;32.13;;;14.67;;
8007;SDS011;4049;49.468;11.200;2024-03-22T06:54:38;25.30;;;13.83;;
8007;SDS011;4049;49.468;11.200;2024-03-22T06:57:04;23.73;;;13.17;;
8007;SDS011;4049;49.468;11.200;2024-03-22T06:59:32;19.40;;;12.20;;
8007;SDS011;4049;49.468;11.200;2024-03-22T07:01:58;20.80;;;12.50;;
8007;SDS011;4049;49.468;11.200;2024-03-22T07:04:25;22.83;;;13.07;;
8007;SDS011;4049;49.468;11.200;2024-03-22T07:06:51;19.10;;;12.10;;
8007;SDS011;4049;49.468;11.200;2024-03-22T07:09:18;19.00;;;12.23;;
8007;SDS011;4049;49.468;11.200;2024-03-22T07:11:44;20.13;;;12.40;;
8007;SDS011;4049;49.468;11.200;2024-03-22T07:14:11;17.87;;;11.67;;
8007;SDS011;4049;49.468;11.200;2024-03-22T07:16:38;18.77;;;11.03;;
8007;SDS011;4049;49.468;11.200;2024-03-22T07:19:05;18.07;;;11.17;;
8007;SDS011;4049;49.468;11.200;2024-03-22T07:21:31;18.97;;;11.27;;
8007;SDS011;4049;49.468;11.200;2024-03-22T07:23:58;18.37;;;11.20;;
8007;SDS011;4049;49.468;11.200;2024-03-22T07:26:23;20.47;;;11.87;;
8007;SDS011;4049;49.468;11.200;2024-03-22T07:28:50;19.50;;;11.70;;
8007;SDS011;4049;49.468;11.200;2024-03-22T07:31:16;20.30;;;12.47;;
8007;SDS011;4049;49.468;11.200;2024-03-22T07:33:44;22.23;;;12.10;;
8007;SDS011;4049;49.468;11.200;2024-03-22T07:36:10;18.87;;;11.93;;
8007;SDS011;4049;49.468;11.200;2024-03-22T07:38:37;21.70;;;11.80;;
8007;SDS011;4049;49.468;11.200;2024-03-22T07:41:03;23.33;;;14.03;;
8007;SDS011;4049;49.468;11.200;2024-03-22T07:43:30;21.90;;;12.90;;
8007;SDS011;4049;49.468;11.200;2024-03-22T07:45:56;20.47;;;12.87;;
8007;SDS011;4049;49.468;11.200;2024-03-22T07:48:23;22.23;;;13.20;;
8007;SDS011;4049;49.468;11.200;2024-03-22T07:50:56;20.33;;;12.50;;
8007;SDS011;4049;49.468;11.200;2024-03-22T07:53:24;20.50;;;12.47;;
8007;SDS011;4049;49.468;11.200;2024-03-22T07:55:50;22.23;;;12.73;;
8007;SDS011;4049;49.468;11.200;2024-03-22T07:58:19;17.60;;;12.23;;
8007;SDS011;4049;49.468;11.200;2024-03-22T08:00:45;19.27;;;11.90;;
8007;SDS011;4049;49.468;11.200;2024-03-22T08:03:13;20.77;;;12.03;;
8007;SDS011;4049;49.468;11.200;2024-03-22T08:05:40;22.90;;;13.10;;
8007;SDS011;4049;49.468;11.200;2024-03-22T08:08:08;21.07;;;11.83;;
8007;SDS011;4049;49.468;11.200;2024-03-22T08:10:34;20.33;;;12.07;;
8007;SDS011;4049;49.468;11.200;2024-03-22T08:13:01;20.97;;;12.27;;
8007;SDS011;4049;49.468;11.200;2024-03-22T08:15:27;20.50;;;12.30;;
8007;SDS011;4049;49.468;11.200;2024-03-22T08:17:54;21.10;;;12.83;;
8007;SDS011;4049;49.468;11.200;2024-03-22T08:20:22;21.00;;;13.53;;
8007;SDS011;4049;49.468;11.200;2024-03-22T08:22:49;26.13;;;14.60;;
8007;SDS011;4049;49.468;11.200;2024-03-22T08:25:16;28.53;;;13.80;;
8007;SDS011;4049;49.468;11.200;2024-03-22T08:27:45;26.07;;;13.77;;
8007;SDS011;4049;49.468;11.200;2024-03-22T08:30:11;26.23;;;14.67;;
8007;SDS011;4049;49.468;11.200;2024-03-22T08:32:39;29.07;;;14.20;;
8007;SDS011;4049;49.468;11.200;2024-03-22T08:35:05;27.37;;;14.23;;
8007;SDS011;4049;49.468;11.200;2024-03-22T08:37:33;24.97;;;13.83;;
8007;SDS011;4049;49.468;11.200;2024-03-22T08:39:59;23.20;;;13.03;;
8007;SDS011;4049;49.468;11.200;2024-03-22T08:42:27;24.17;;;13.13;;
8007;SDS011;4049;49.468;11.200;2024-03-22T08:44:53;21.43;;;12.87;;
8007;SDS011;4049;49.468;11.200;2024-03-22T08:47:22;20.77;;;12.73;;
8007;SDS011;4049;49.468;11.200;2024-03-22T08:49:48;21.23;;;12.43;;
8007;SDS011;4049;49.468;11.200;2024-03-22T08:52:15;20.57;;;12.63;;
8007;SDS011;4049;49.468;11.200;2024-03-22T08:54:41;20.50;;;12.73;;
8007;SDS011;4049;49.468;11.200;2024-03-22T08:57:08;20.33;;;12.13;;
8007;SDS011;4049;49.468;11.200;2024-03-22T08:59:35;20.53;;;13.10;;
8007;SDS011;4049;49.468;11.200;2024-03-22T09:02:03;17.93;;;12.07;;
8007;SDS011;4049;49.468;11.200;2024-03-22T09:04:29;20.77;;;12.60;;
8007;SDS011;4049;49.468;11.200;2024-03-22T09:06:56;23.43;;;13.97;;
8007;SDS011;4049;49.468;11.200;2024-03-22T09:09:23;21.50;;;13.10;;
8007;SDS011;4049;49.468;11.200;2024-03-22T09:11:50;21.80;;;13.40;;
8007;SDS011;4049;49.468;11.200;2024-03-22T09:14:16;23.30;;;12.57;;
8007;SDS011;4049;49.468;11.200;2024-03-22T09:16:44;20.73;;;12.80;;
8007;SDS011;4049;49.468;11.200;2024-03-22T09:19:10;21.33;;;12.90;;
8007;SDS011;4049;49.468;11.200;2024-03-22T09:21:37;18.93;;;11.90;;
8007;SDS011;4049;49.468;11.200;2024-03-22T09:24:03;18.73;;;11.47;;
8007;SDS011;4049;49.468;11.200;2024-03-22T09:26:31;21.63;;;12.30;;
8007;SDS011;4049;49.468;11.200;2024-03-22T09:28:57;22.00;;;12.30;;
8007;SDS011;4049;49.468;11.200;2024-03-22T09:31:24;17.17;;;11.17;;
8007;SDS011;4049;49.468;11.200;2024-03-22T09:33:52;20.40;;;11.47;;
8007;SDS011;4049;49.468;11.200;2024-03-22T09:36:18;18.03;;;10.67;;
8007;SDS011;4049;49.468;11.200;2024-03-22T09:38:46;20.23;;;12.00;;
8007;SDS011;4049;49.468;11.200;2024-03-22T09:41:13;18.17;;;11.17;;
8007;SDS011;4049;49.468;11.200;2024-03-22T09:43:40;22.10;;;12.20;;
8007;SDS011;4049;49.468;11.200;2024-03-22T09:46:09;19.47;;;12.00;;
8007;SDS011;4049;49.468;11.200;2024-03-22T09:48:36;23.13;;;12.30;;
8007;SDS011;4049;49.468;11.200;2024-03-22T09:51:05;20.20;;;11.53;;
8007;SDS011;4049;49.468;11.200;2024-03-22T09:53:33;20.10;;;11.73;;
8007;SDS011;4049;49.468;11.200;2024-03-22T09:56:00;18.83;;;11.10;;
8007;SDS011;4049;49.468;11.200;2024-03-22T09:58:27;18.97;;;11.77;;
8007;SDS011;4049;49.468;11.200;2024-03-22T10:00:54;19.47;;;12.03;;
8007;SDS011;4049;49.468;11.200;2024-03-22T10:03:25;19.73;;;11.33;;
8007;SDS011;4049;49.468;11.200;2024-03-22T10:05:52;19.23;;;10.97;;
8007;SDS011;4049;49.468;11.200;2024-03-22T10:08:19;18.97;;;11.33;;
8007;SDS011;4049;49.468;11.200;2024-03-22T10:10:46;17.90;;;10.93;;
8007;SDS011;4049;49.468;11.200;2024-03-22T10:13:12;19.97;;;11.53;;
8007;SDS011;4049;49.468;11.200;2024-03-22T10:15:39;19.53;;;11.03;;
8007;SDS011;4049;49.468;11.200;2024-03-22T10:18:04;15.93;;;10.57;;
8007;SDS011;4049;49.468;11.200;2024-03-22T10:20:33;16.97;;;10.50;;
8007;SDS011;4049;49.468;11.200;2024-03-22T10:22:59;16.83;;;10.33;;
8007;SDS011;4049;49.468;11.200;2024-03-22T10:25:28;19.53;;;10.47;;
8007;SDS011;4049;49.468;11.200;2024-03-22T10:27:54;20.67;;;10.83;;
8007;SDS011;4049;49.468;11.200;2024-03-22T10:30:21;16.00;;;10.23;;
8007;SDS011;4049;49.468;11.200;2024-03-22T10:32:48;17.33;;;11.03;;
8007;SDS011;4049;49.468;11.200;2024-03-22T10:35:15;16.13;;;9.90;;
8007;SDS011;4049;49.468;11.200;2024-03-22T10:37:42;15.43;;;9.77;;
8007;SDS011;4049;49.468;11.200;2024-03-22T10:40:10;16.03;;;9.60;;
8007;SDS011;4049;49.468;11.200;2024-03-22T10:42:39;14.70;;;9.07;;
8007;SDS011;4049;49.468;11.200;2024-03-22T10:45:07;15.07;;;9.37;;
8007;SDS011;4049;49.468;11.200;2024-03-22T10:47:34;15.93;;;10.73;;
8007;SDS011;4049;49.468;11.200;2024-03-22T10:50:04;15.13;;;10.03;;
8007;SDS011;4049;49.468;11.200;2024-03-22T10:52:32;14.47;;;10.17;;
8007;SDS011;4049;49.468;11.200;2024-03-22T10:55:02;13.73;;;9.33;;
8007;SDS011;4049;49.468;11.200;2024-03-22T10:57:30;17.50;;;10.40;;
8007;SDS011;4049;49.468;11.200;2024-03-22T11:00:00;16.83;;;10.13;;
8007;SDS011;4049;49.468;11.200;2024-03-22T11:02:27;15.33;;;10.27;;
8007;SDS011;4049;49.468;11.200;2024-03-22T11:04:56;15.00;;;10.03;;
8007;SDS011;4049;49.468;11.200;2024-03-22T11:07:22;14.33;;;10.43;;
8007;SDS011;4049;49.468;11.200;2024-03-22T11:09:53;16.77;;;10.47;;
8007;SDS011;4049;49.468;11.200;2024-03-22T11:12:21;14.20;;;9.83;;
8007;SDS011;4049;49.468;11.200;2024-03-22T11:14:50;15.60;;;9.77;;
8007;SDS011;4049;49.468;11.200;2024-03-22T11:17:18;17.33;;;11.40;;
8007;SDS011;4049;49.468;11.200;2024-03-22T11:19:46;12.10;;;8.93;;
8007;SDS011;4049;49.468;11.200;2024-03-22T11:22:12;15.00;;;9.47;;
8007;SDS011;4049;49.468;11.200;2024-03-22T11:24:39;12.17;;;8.20;;
8007;SDS011;4049;49.468;11.200;2024-03-22T11:27:09;13.80;;;8.50;;
8007;SDS011;4049;49.468;11.200;2024-03-22T11:29:36;10.13;;;6.77;;
8007;SDS011;4049;49.468;11.200;2024-03-22T11:32:05;8.60;;;6.00;;
8007;SDS011;4049;49.468;11.200;2024-03-22T11:34:35;7.40;;;5.33;;
8007;SDS011;4049;49.468;11.200;2024-03-22T11:37:01;6.83;;;4.50;;
8007;SDS011;4049;49.468;11.200;2024-03-22T11:39:28;9.50;;;5.37;;
8007;SDS011;4049;49.468;11.200;2024-03-22T11:41:54;7.87;;;4.70;;
8007;SDS011;4049;49.468;11.200;2024-03-22T11:44:24;6.00;;;4.43;;
8007;SDS011;4049;49.468;11.200;2024-03-22T11:46:50;8.03;;;5.07;;
8007;SDS011;4049;49.468;11.200;2024-03-22T11:49:17;7.03;;;4.33;;
8007;SDS011;4049;49.468;11.200;2024-03-22T11:51:45;7.80;;;5.50;;
8007;SDS011;4049;49.468;11.200;2024-03-22T11:54:14;6.40;;;4.43;;
8007;SDS011;4049;49.468;11.200;2024-03-22T11:56:40;8.50;;;5.03;;
8007;SDS011;4049;49.468;11.200;2024-03-22T11:59:07;5.80;;;4.20;;
8007;SDS011;4049;49.468;11.200;2024-03-22T12:01:33;5.90;;;4.43;;
8007;SDS011;4049;49.468;11.200;2024-03-22T12:04:00;6.57;;;3.90;;
8007;SDS011;4049;49.468;11.200;2024-03-22T12:06:26;5.80;;;4.57;;
8007;SDS011;4049;49.468;11.200;2024-03-22T12:08:54;6.87;;;4.40;;
8007;SDS011;4049;49.468;11.200;2024-03-22T12:11:20;6.53;;;4.43;;
8007;SDS011;4049;49.468;11.200;2024-03-22T12:13:47;5.33;;;4.20;;
8007;SDS011;4049;49.468;11.200;2024-03-22T12:16:13;4.17;;;3.30;;
8007;SDS011;4049;49.468;11.200;2024-03-22T12:18:40;5.90;;;4.07;;
8007;SDS011;4049;49.468;11.200;2024-03-22T12:21:06;6.13;;;3.83;;
8007;SDS011;4049;49.468;11.200;2024-03-22T12:23:33;6.37;;;4.73;;
8007;SDS011;4049;49.468;11.200;2024-03-22T12:26:00;7.00;;;4.93;;
8007;SDS011;4049;49.468;11.200;2024-03-22T12:28:27;7.60;;;5.00;;
8007;SDS011;4049;49.468;11.200;2024-03-22T12:30:53;7.67;;;5.13;;
8007;SDS011;4049;49.468;11.200;2024-03-22T12:33:20;7.87;;;5.40;;
8007;SDS011;4049;49.468;11.200;2024-03-22T12:35:46;7.40;;;5.33;;
8007;SDS011;4049;49.468;11.200;2024-03-22T12:38:13;7.43;;;5.30;;
8007;SDS011;4049;49.468;11.200;2024-03-22T12:40:39;7.77;;;5.33;;
8007;SDS011;4049;49.468;11.200;2024-03-22T12:43:09;8.60;;;5.30;;
8007;SDS011;4049;49.468;11.200;2024-03-22T12:45:35;7.73;;;5.00;;
8007;SDS011;4049;49.468;11.200;2024-03-22T12:48:02;6.50;;;4.87;;
8007;SDS011;4049;49.468;11.200;2024-03-22T12:50:29;8.27;;;5.53;;
8007;SDS011;4049;49.468;11.200;2024-03-22T12:52:56;9.30;;;6.27;;
8007;SDS011;4049;49.468;11.200;2024-03-22T12:55:22;8.80;;;5.80;;
8007;SDS011;4049;49.468;11.200;2024-03-22T12:57:50;7.67;;;5.53;;
8007;SDS011;4049;49.468;11.200;2024-03-22T13:00:18;6.60;;;5.30;;
8007;SDS011;4049;49.468;11.200;2024-03-22T13:02:45;7.63;;;5.17;;
8007;SDS011;4049;49.468;11.200;2024-03-22T13:05:11;6.97;;;5.40;;
8007;SDS011;4049;49.468;11.200;2024-03-22T13:07:38;6.53;;;5.03;;
8007;SDS011;4049;49.468;11.200;2024-03-22T13:10:04;8.10;;;5.40;;
8007;SDS011;4049;49.468;11.200;2024-03-22T13:12:32;9.07;;;5.50;;
8007;SDS011;4049;49.468;11.200;2024-03-22T13:14:59;7.33;;;5.67;;
8007;SDS011;4049;49.468;11.200;2024-03-22T13:17:28;7.73;;;5.50;;
8007;SDS011;4049;49.468;11.200;2024-03-22T13:19:54;7.00;;;4.73;;
8007;SDS011;4049;49.468;11.200;2024-03-22T13:22:21;6.67;;;5.03;;
8007;SDS011;4049;49.468;11.200;2024-03-22T13:24:47;6.83;;;5.03;;
8007;SDS011;4049;49.468;11.200;2024-03-22T13:27:15;6.33;;;5.10;;
8007;SDS011;4049;49.468;11.200;2024-03-22T13:29:41;8.17;;;5.20;;
8007;SDS011;4049;49.468;11.200;2024-03-22T13:32:09;7.33;;;4.57;;
8007;SDS011;4049;49.468;11.200;2024-03-22T13:34:36;5.80;;;4.80;;
8007;SDS011;4049;49.468;11.200;2024-03-22T13:37:03;6.17;;;5.03;;
8007;SDS011;4049;49.468;11.200;2024-03-22T13:39:29;7.10;;;5.43;;
8007;SDS011;4049;49.468;11.200;2024-03-22T13:41:56;6.67;;;5.10;;
8007;SDS011;4049;49.468;11.200;2024-03-22T13:44:22;6.00;;;4.47;;
8007;SDS011;4049;49.468;11.200;2024-03-22T13:46:52;6.97;;;4.53;;
8007;SDS011;4049;49.468;11.200;2024-03-22T13:49:18;6.33;;;4.47;;
8007;SDS011;4049;49.468;11.200;2024-03-22T13:51:48;7.40;;;4.90;;
8007;SDS011;4049;49.468;11.200;2024-03-22T13:54:14;5.77;;;4.57;;
8007;SDS011;4049;49.468;11.200;2024-03-22T13:56:41;6.93;;;4.80;;
8007;SDS011;4049;49.468;11.200;2024-03-22T13:59:07;6.50;;;5.20;;
8007;SDS011;4049;49.468;11.200;2024-03-22T14:01:35;5.97;;;4.50;;
8007;SDS011;4049;49.468;11.200;2024-03-22T14:04:01;5.10;;;4.30;;
8007;SDS011;4049;49.468;11.200;2024-03-22T14:06:28;5.90;;;4.67;;
8007;SDS011;4049;49.468;11.200;2024-03-22T14:08:56;8.20;;;5.10;;
8007;SDS011;4049;49.468;11.200;2024-03-22T14:11:25;5.17;;;4.23;;
8007;SDS011;4049;49.468;11.200;2024-03-22T14:13:52;7.80;;;4.80;;
8007;SDS011;4049;49.468;11.200;2024-03-22T14:16:18;6.83;;;3.47;;
8007;SDS011;4049;49.468;11.200;2024-03-22T14:18:44;4.73;;;3.17;;
8007;SDS011;4049;49.468;11.200;2024-03-22T14:21:11;4.60;;;3.40;;
8007;SDS011;4049;49.468;11.200;2024-03-22T14:23:42;3.77;;;3.30;;
8007;SDS011;4049;49.468;11.200;2024-03-22T14:26:10;5.03;;;3.73;;
8007;SDS011;4049;49.468;11.200;2024-03-22T14:28:36;4.77;;;3.50;;
8007;SDS011;4049;49.468;11.200;2024-03-22T14:31:04;4.90;;;3.70;;
8007;SDS011;4049;49.468;11.200;2024-03-22T14:33:33;6.40;;;3.60;;
8007;SDS011;4049;49.468;11.200;2024-03-22T14:36:00;6.73;;;3.50;;
8007;SDS011;4049;49.468;11.200;2024-03-22T14:38:26;5.50;;;3.77;;
8007;SDS011;4049;49.468;11.200;2024-03-22T14:40:54;5.03;;;3.70;;
8007;SDS011;4049;49.468;11.200;2024-03-22T14:43:23;5.00;;;3.73;;